New Nada — 3ELP9 — position and weather

sailwx.info

Track history (hours):
 
Tides and Currents Weather Stations Pressure Air Temp Water Temp Dewpoint Dewpoint Depression Visibility Wind Speed Wind Dir Waves Ship Positions

New Nada

Last reported at 2014-Oct-09 12:13 UTC. Time now 2014-Oct-23 16:32 UTC.
Position N 23°23' W 117°33'.
Warning: this ship's position is 14 days out of date.

Length 180 m; beam 32.2 m.

Type: Cargo ship. MMSI: 356005000.

Date/timePositionNaut miles runAvg speedWind from/ knotsBaromVisibWave heightAir tempDewpointWater temp
2014-Oct-09 12:13N 23°23' W 117°33'1717.2
2014-Oct-09 11:12N 23°28' W 117°52'3017.2
2014-Oct-09 09:27N 23°36' W 118°23'12417.1
2014-Oct-09 02:12N 24°12' W 120°32'3317.0
2014-Oct-09 00:14N 24°21' W 121°08'1217.4
2014-Oct-08 23:31N 24°25' W 121°21'1717.4
2014-Oct-08 22:33N 24°29' W 121°39'1817.6
2014-Oct-08 21:33N 24°34' W 121°57'1917.4
2014-Oct-08 20:27N 24°39' W 122°17'5117.3
2014-Oct-08 17:31N 24°52' W 123°11'1717.0
2014-Oct-08 16:33N 24°56' W 123°29'1717.1
2014-Oct-08 15:32N 25°01' W 123°48'7016.9
2014-Oct-08 11:24N 25°19' W 125°02'3116.8
2014-Oct-08 09:33N 25°26' W 125°36'3416.5
2014-Oct-08 07:28N 25°34' W 126°13'1616.4
2014-Oct-08 06:29N 25°38' W 126°30'1516.5
2014-Oct-08 05:33N 25°42' W 126°46'1716.4
2014-Oct-08 04:30N 25°46' W 127°05'1616.7
2014-Oct-08 03:31N 25°50' W 127°23'  
Track history (hours):
 
Tides and Currents Weather Stations Pressure Air Temp Water Temp Dewpoint Dewpoint Depression Visibility Wind Speed Wind Dir Waves Ship Positions

New Nada

Last reported at 2014-Oct-09 12:13 UTC. Time now 2014-Oct-23 16:32 UTC.
Position N 23°23' W 117°33'.
Warning: this ship's position is 14 days out of date.

Length 180 m; beam 32.2 m.

Type: Cargo ship. MMSI: 356005000.

Date/timePositionNaut miles runAvg speedWind from/ knotsBaromVisibWave heightAir tempDewpointWater temp
2014-Oct-09 12:13N 23°23' W 117°33'1717.2
2014-Oct-09 11:12N 23°28' W 117°52'3017.2
2014-Oct-09 09:27N 23°36' W 118°23'12417.1
2014-Oct-09 02:12N 24°12' W 120°32'3317.0
2014-Oct-09 00:14N 24°21' W 121°08'1217.4
2014-Oct-08 23:31N 24°25' W 121°21'1717.4
2014-Oct-08 22:33N 24°29' W 121°39'1817.6
2014-Oct-08 21:33N 24°34' W 121°57'1917.4
2014-Oct-08 20:27N 24°39' W 122°17'5117.3
2014-Oct-08 17:31N 24°52' W 123°11'1717.0
2014-Oct-08 16:33N 24°56' W 123°29'1717.1
2014-Oct-08 15:32N 25°01' W 123°48'7016.9
2014-Oct-08 11:24N 25°19' W 125°02'3116.8
2014-Oct-08 09:33N 25°26' W 125°36'3416.5
2014-Oct-08 07:28N 25°34' W 126°13'1616.4
2014-Oct-08 06:29N 25°38' W 126°30'1516.5
2014-Oct-08 05:33N 25°42' W 126°46'1716.4
2014-Oct-08 04:30N 25°46' W 127°05'1616.7
2014-Oct-08 03:31N 25°50' W 127°23'  

Dump ship's entire track history